Flight Track Log - Related Links

Times and Time Zones

All times are in EDT time to prevent confusion due to time zone crossing. See the N237RB flight status page for this flight to view local times or setup timezone preferences in your user account.

Time Position Orientation Groundspeed Altitude Reporting Facility
EDT Latitude Longitude Course Direction KTS MPH feet Rate Location/Type
Mon 11:00:00 PM 40.3384 -80.3871 270° West  Level Estimated
Mon 11:01:00 PM 40.3359 -80.4523 261° West  Level Estimated
Mon 11:02:00 PM 40.3316 -80.5174 265° West  Level FlightAware Approximate
Mon 11:03:00 PM 40.3292 -80.5826 268° West  Level Estimated
Mon 11:04:00 PM 40.3267 -80.6479 267° West  Level FlightAware Approximate
Mon 11:05:00 PM 40.3242 -80.7131 267° West  Level FlightAware Approximate
Mon 11:06:00 PM 40.3216 -80.7784 267° West  Level FlightAware Approximate
Mon 11:07:00 PM 40.3190 -80.8436 267° West  Level FlightAware Approximate
Mon 11:08:00 PM 40.3164 -80.9088 267° West  Level FlightAware Approximate
Mon 11:08:00 PM 40.3153 -80.4958 267° West 158 182 11,900  Level Cleveland Center
Mon 11:09:00 PM 40.3138 -80.9740 267° West  Level FlightAware Approximate
Mon 11:09:00 PM 40.3111 -80.5531 265° West 158 182 12,600  Level Cleveland Center
Mon 11:10:00 PM 40.3111 -81.0392 267° West  Level FlightAware Approximate
Mon 11:10:00 PM 40.3089 -80.6158 267° West 163 188 13,200  Level Cleveland Center
Mon 11:11:00 PM 40.3084 -81.1044 267° West  Level FlightAware Approximate
Mon 11:11:00 PM 40.3069 -80.6731 267° West 163 188 13,900  Level Cleveland Center
Mon 11:12:00 PM 40.3056 -81.1696 267° West  Level FlightAware Approximate
Mon 11:12:00 PM 40.3047 -80.7328 267° West 163 188 14,600  Level Cleveland Center
Mon 11:13:00 PM 40.3025 -80.7953 267° West 168 193 15,300 700 Climbing Cleveland Center
Mon 11:14:00 PM 40.3003 -80.8581 267° West 168 193 16,000 350 Climbing Cleveland Center
Mon 11:15:00 PM 40.2981 -80.9261 268° West 174 200 16,000  Level Cleveland Center
Mon 11:16:00 PM 40.2936 -80.9994 265° West 197 227 16,000  Level Cleveland Center
Mon 11:17:00 PM 40.2911 -81.0731 267° West 204 235 16,000  Level Cleveland Center
Mon 11:18:00 PM 40.2889 -81.1464 268° West 209 241 16,000  Level Cleveland Center
Mon 11:19:23 PM 40.2814 -81.2461 264° West 198 228 16,000  Level Indianapolis Center
Mon 11:20:24 PM 40.2778 -81.3178 266° West 196 226 16,000  Level Indianapolis Center
Mon 11:21:25 PM 40.2753 -81.3900 267° West 197 227 16,000  Level Indianapolis Center
Mon 11:22:26 PM 40.2717 -81.4753 267° West 199 229 16,000  Level Indianapolis Center
Mon 11:23:27 PM 40.2678 -81.5478 266° West 197 227 16,000  Level Indianapolis Center
Mon 11:24:28 PM 40.2658 -81.6192 268° West 195 224 16,000  Level Indianapolis Center
Mon 11:25:29 PM 40.2619 -81.6919 266° West 198 228 16,000  Level Indianapolis Center
Mon 11:26:30 PM 40.2578 -81.7619 266° West 193 222 16,000  Level Indianapolis Center
Mon 11:27:31 PM 40.2544 -81.8356 267° West 200 230 16,000  Level Indianapolis Center
Mon 11:28:32 PM 40.2511 -81.9069 267° West 196 226 16,000  Level Indianapolis Center
Mon 11:29:33 PM 40.2486 -81.9783 267° West 195 224 16,000  Level Indianapolis Center
Mon 11:30:34 PM 40.2442 -82.0517 265° West 199 229 16,000  Level Indianapolis Center
Mon 11:31:34 PM 40.2411 -82.1236 267° West 197 227 16,000  Level Indianapolis Center
Mon 11:32:35 PM 40.2378 -82.1917 266° West 195 224 16,000  Level Indianapolis Center
Mon 11:33:36 PM 40.2342 -82.2631 266° West 196 226 16,000  Level Indianapolis Center
Mon 11:34:37 PM 40.2306 -82.3325 266° West 194 223 16,000  Level Indianapolis Center
Mon 11:35:38 PM 40.2264 -82.4036 266° West 196 226 16,000  Level Indianapolis Center
Mon 11:36:39 PM 40.2233 -82.4756 267° West 198 228 16,000  Level Indianapolis Center
Mon 11:37:40 PM 40.2189 -82.5469 265° West 198 228 16,000  Level Indianapolis Center
Mon 11:38:40 PM 40.2150 -82.6164 266° West 195 224 16,000  Level Indianapolis Center
Mon 11:39:41 PM 40.2111 -82.6878 266° West 196 226 16,000  Level Indianapolis Center
Mon 11:40:42 PM 40.2072 -82.7586 266° West 197 227 16,000  Level Indianapolis Center
Mon 11:41:43 PM 40.2022 -82.8436 266° West 195 224 16,000  Level Indianapolis Center
Mon 11:42:43 PM 40.1981 -82.9144 266° West 196 226 16,000  Level Indianapolis Center
Mon 11:43:44 PM 40.1944 -82.9842 266° West 194 223 16,000  Level Indianapolis Center
Mon 11:44:45 PM 40.1906 -83.0556 266° West 197 227 16,000  Level Indianapolis Center
Mon 11:45:46 PM 40.1864 -83.1253 266° West 194 223 16,000  Level Indianapolis Center
Mon 11:46:46 PM 40.1819 -83.1961 265° West 197 227 16,000  Level Indianapolis Center
Mon 11:47:47 PM 40.1778 -83.2667 266° West 196 226 16,000  Level Indianapolis Center
Mon 11:48:48 PM 40.1736 -83.3369 266° West 196 226 16,000  Level Indianapolis Center
Mon 11:49:49 PM 40.1692 -83.4069 265° West 195 224 16,000  Level Indianapolis Center
Mon 11:50:49 PM 40.1653 -83.4778 266° West 196 226 16,000  Level Indianapolis Center
Mon 11:51:50 PM 40.1603 -83.5478 265° West 196 226 16,000  Level Indianapolis Center
Mon 11:52:51 PM 40.1564 -83.6183 266° West 196 226 16,000  Level Indianapolis Center
Mon 11:53:52 PM 40.1508 -83.7033 265° West 198 228 16,000  Level Indianapolis Center
Mon 11:54:52 PM 40.1458 -83.7731 265° West 196 226 16,000  Level Indianapolis Center
Mon 11:55:53 PM 40.1408 -83.8444 265° West 198 228 16,000  Level Indianapolis Center
Mon 11:56:54 PM 40.1369 -83.9167 266° West 200 230 16,000  Level Indianapolis Center
Mon 11:57:54 PM 40.1319 -83.9878 265° West 199 229 16,000  Level Indianapolis Center
Mon 11:58:55 PM 40.1272 -84.0600 265° West 200 230 16,000  Level Indianapolis Center
Mon 11:59:56 PM 40.1225 -84.1317 265° West 199 229 16,000  Level Indianapolis Center
Tue 12:00:57 AM 40.1181 -84.2042 265° West 200 230 16,000  Level Indianapolis Center
Tue 12:01:57 AM 40.1119 -84.2769 264° West 202 232 16,000  Level Indianapolis Center
Tue 12:02:58 AM 40.1067 -84.3500 265° West 203 234 16,000  Level Indianapolis Center
Tue 12:03:59 AM 40.1022 -84.4217 265° West 200 230 16,000  Level Indianapolis Center
Tue 12:04:59 AM 40.0975 -84.4956 265° West 204 235 16,000  Level Indianapolis Center
Tue 12:06:00 AM 40.0928 -84.5678 265° West 202 232 16,000  Level Indianapolis Center
Tue 12:07:01 AM 40.0867 -84.6408 264° West 202 232 16,000  Level Indianapolis Center
Tue 12:08:02 AM 40.0794 -84.7278 264° West 202 232 16,000  Level Indianapolis Center
Tue 12:09:02 AM 40.0742 -84.8003 265° West 201 231 16,000  Level Indianapolis Center
Tue 12:10:03 AM 40.0689 -84.8722 265° West 201 231 16,000  Level Indianapolis Center
Tue 12:11:04 AM 40.0639 -84.9358 264° West 197 227 16,000  Level Indianapolis Center
Tue 12:12:04 AM 40.0594 -85.0086 265° West 200 230 16,000  Level Indianapolis Center
Tue 12:13:05 AM 40.0528 -85.0792 263° West 198 228 16,000  Level Indianapolis Center
Tue 12:14:06 AM 40.0475 -85.1486 264° West 194 223 16,000  Level Indianapolis Center
Tue 12:15:06 AM 40.0428 -85.2211 265° West 200 230 16,000  Level Indianapolis Center
Tue 12:16:07 AM 40.0367 -85.2900 263° West 195 224 16,000  Level Indianapolis Center
Tue 12:17:07 AM 40.0308 -85.3750 265° West 196 226 16,000  Level Indianapolis Center
Tue 12:18:08 AM 40.0247 -85.4444 263° West 194 223 16,000  Level Indianapolis Center
Tue 12:19:09 AM 40.0192 -85.5161 264° West 198 228 16,000  Level Indianapolis Center
Tue 12:20:09 AM 40.0142 -85.5864 265° West 197 227 16,000  Level Indianapolis Center
Tue 12:21:10 AM 40.0086 -85.6575 264° West 197 227 16,000  Level Indianapolis Center
Tue 12:22:10 AM 40.0025 -85.7275 264° West 196 226 16,000  Level Indianapolis Center
Tue 12:23:11 AM 39.9967 -85.7983 264° West 197 227 16,000  Level Indianapolis Center
Tue 12:24:12 AM 39.9906 -85.8692 264° West 199 229 16,000  Level Indianapolis Center
Tue 12:25:12 AM 39.9850 -85.9400 264° West 198 228 16,000  Level Indianapolis Center
Tue 12:26:13 AM 39.9786 -86.0108 263° West 199 229 16,000  Level Indianapolis Center
Tue 12:27:13 AM 39.9728 -86.0814 264° West 198 228 16,000  Level Indianapolis Center
Tue 12:28:14 AM 39.9672 -86.1517 264° West 196 226 16,000  Level Indianapolis Center
Tue 12:29:14 AM 39.9614 -86.2219 264° West 197 227 16,000  Level Indianapolis Center
Tue 12:30:15 AM 39.9547 -86.2922 263° West 197 227 16,000  Level Indianapolis Center
Tue 12:31:15 AM 39.9475 -86.3775 264° West 199 229 16,000  Level Indianapolis Center
Tue 12:32:16 AM 39.9414 -86.4486 264° West 200 230 16,000  Level Indianapolis Center
Tue 12:33:16 AM 39.9344 -86.5178 263° West 197 227 16,000  Level Indianapolis Center
Tue 12:34:17 AM 39.9289 -86.5894 264° West 199 229 16,000  Level Indianapolis Center
Tue 12:35:18 AM 39.9219 -86.6594 263° West 198 228 16,000  Level Indianapolis Center
Tue 12:36:19 AM 39.9161 -86.7314 264° West 199 229 16,000  Level Indianapolis Center
Tue 12:37:19 AM 39.9097 -86.8011 263° West 197 227 16,000  Level Indianapolis Center
Tue 12:38:19 AM 39.9025 -86.8714 262° West 196 226 16,000  Level Indianapolis Center
Tue 12:39:20 AM 39.8964 -86.9417 264° West 196 226 16,000  Level Indianapolis Center
Tue 12:40:20 AM 39.8897 -87.0111 263° West 196 226 16,000  Level Indianapolis Center
Tue 12:41:20 AM 39.8839 -87.0806 264° West 194 223 16,000  Level Indianapolis Center
Tue 12:42:21 AM 39.8769 -87.1514 263° West 196 226 16,000  Level Indianapolis Center
Tue 12:43:21 AM 39.8703 -87.2219 263° West 197 227 16,000  Level Indianapolis Center
Tue 12:44:22 AM 39.8633 -87.2919 263° West 196 226 16,000  Level Indianapolis Center
Tue 12:45:22 AM 39.8556 -87.3617 262° West 196 226 16,000  Level Indianapolis Center
Tue 12:46:23 AM 39.8494 -87.4339 264° West 199 229 16,000  Level Indianapolis Center
Tue 12:47:23 AM 39.8422 -87.5053 263° West 200 230 16,000  Level Indianapolis Center
Tue 12:48:24 AM 39.8344 -87.5908 263° West 200 230 16,000  Level Indianapolis Center
Tue 12:49:24 AM 39.8275 -87.6617 263° West 199 229 16,000  Level Indianapolis Center
Tue 12:50:24 AM 39.8208 -87.7328 263° West 199 229 16,000  Level Indianapolis Center
Tue 12:51:25 AM 39.8125 -87.8036 261° West 199 229 16,000  Level Indianapolis Center
Tue 12:52:25 AM 39.8061 -87.8747 263° West 200 230 16,000  Level Indianapolis Center
Tue 12:53:25 AM 39.7997 -87.9456 263° West 199 229 16,000  Level Indianapolis Center
Tue 12:54:26 AM 39.7917 -88.0172 262° West 198 228 16,000  Level Indianapolis Center
Tue 12:55:26 AM 39.7836 -88.0886 262° West 200 230 16,000 -62 Level Indianapolis Center
Tue 12:56:03 AM 39.7792 -88.1289 262° West 203 234 15,900 -61 Descending Kansas City Center
Tue 12:57:04 AM 39.7714 -88.2003 262° West 201 231 15,900  Level Kansas City Center
Tue 12:58:04 AM 39.7642 -88.2797 263° West 201 231 15,900  Level Kansas City Center
Tue 12:59:05 AM 39.7556 -88.3511 261° West 200 230 15,900  Level Kansas City Center
Tue 01:00:05 AM 39.7494 -88.4222 264° West 199 229 15,900  Level Kansas City Center
Tue 01:01:06 AM 39.7422 -88.4928 262° West 197 227 15,900 50 Level Kansas City Center
Tue 01:02:06 AM 39.7347 -88.5642 262° West 199 229 16,000 50 Climbing Kansas City Center
Tue 01:03:06 AM 39.7269 -88.6342 262° West 198 228 16,000  Level Kansas City Center
Tue 01:04:07 AM 39.7200 -88.7047 263° West 197 227 16,000  Level Kansas City Center
Tue 01:05:07 AM 39.7119 -88.7761 262° West 199 229 16,000  Level Kansas City Center
Tue 01:06:08 AM 39.7050 -88.8461 263° West 198 228 16,000  Level Kansas City Center
Tue 01:07:08 AM 39.6967 -88.9172 261° West 198 228 16,000 50 Level Kansas City Center
Tue 01:08:08 AM 39.6889 -88.9886 262° West 199 229 16,100 50 Climbing Kansas City Center
Tue 01:09:09 AM 39.6811 -89.0597 262° West 200 230 16,100  Level Kansas City Center
Tue 01:10:09 AM 39.6728 -89.1300 261° West 197 227 16,100  Level Kansas City Center
Tue 01:11:10 AM 39.6653 -89.2008 262° West 198 228 16,100 -50 Level Kansas City Center
Tue 01:12:10 AM 39.6567 -89.2747 261° West 200 230 16,000 -50 Descending Kansas City Center
Tue 01:13:10 AM 39.6497 -89.3447 263° West 198 228 16,000  Level Kansas City Center
Tue 01:14:11 AM 39.6406 -89.4147 260° West 198 228 16,000  Level Kansas City Center
Tue 01:15:11 AM 39.6331 -89.4856 262° West 198 228 16,000  Level Kansas City Center
Tue 01:16:11 AM 39.6250 -89.5561 262° West 198 228 16,000  Level Kansas City Center
Tue 01:17:12 AM 39.6158 -89.6256 260° West 197 227 16,000  Level Kansas City Center
Tue 01:18:12 AM 39.6075 -89.6942 261° West 196 226 16,000  Level Kansas City Center
Tue 01:19:13 AM 39.5997 -89.7650 262° West 196 226 16,000  Level Kansas City Center
Tue 01:20:13 AM 39.5925 -89.8339 262° West 196 226 16,000  Level Kansas City Center
Tue 01:21:13 AM 39.5836 -89.9042 261° West 196 226 16,000  Level Kansas City Center
Tue 01:22:14 AM 39.5750 -89.9736 261° West 197 227 16,000  Level Kansas City Center
Tue 01:23:14 AM 39.5669 -90.0422 261° West 195 224 16,000  Level Kansas City Center
Tue 01:24:14 AM 39.5586 -90.1117 261° West 195 224 16,000  Level Kansas City Center
Tue 01:25:15 AM 39.5500 -90.1806 261° West 195 224 16,000  Level Kansas City Center
Tue 01:26:15 AM 39.5417 -90.2500 261° West 195 224 16,000  Level Kansas City Center
Tue 01:27:15 AM 39.5336 -90.3181 261° West 194 223 16,000  Level Kansas City Center
Tue 01:28:16 AM 39.5242 -90.3881 260° West 195 224 16,000  Level Kansas City Center
Tue 01:29:16 AM 39.5144 -90.4700 261° West 195 224 16,000  Level Kansas City Center
Tue 01:30:16 AM 39.5064 -90.5392 261° West 194 223 16,000  Level Kansas City Center
Tue 01:31:17 AM 39.4969 -90.6092 260° West 197 227 16,000  Level Kansas City Center
Tue 01:32:17 AM 39.4886 -90.6767 261° West 194 223 16,000 50 Level Kansas City Center
Tue 01:33:17 AM 39.4797 -90.7447 260° West 193 222 16,100 50 Climbing Kansas City Center
Tue 01:34:17 AM 39.4711 -90.8144 261° West 195 224 16,100  Level Kansas City Center
Tue 01:35:18 AM 39.4628 -90.8833 261° West 195 224 16,100  Level Kansas City Center
Tue 01:36:18 AM 39.4531 -90.9519 260° West 195 224 16,100  Level Kansas City Center
Tue 01:37:18 AM 39.4439 -91.0219 260° West 197 227 16,100  Level Kansas City Center
Tue 01:38:19 AM 39.4356 -91.0919 261° West 198 228 16,100  Level Kansas City Center
Tue 01:39:19 AM 39.4261 -91.1608 260° West 197 227 16,100  Level Kansas City Center
Tue 01:40:19 AM 39.4172 -91.2297 261° West 196 226 16,100 -50 Level Kansas City Center
Tue 01:41:19 AM 39.4072 -91.2981 259° West 195 224 16,000 -50 Descending Kansas City Center
Tue 01:42:20 AM 39.3986 -91.3686 261° West 198 228 16,000  Level Kansas City Center
Tue 01:43:20 AM 39.3900 -91.4375 261° West 196 226 16,000  Level Kansas City Center
Tue 01:44:20 AM 39.3800 -91.5069 259° West 197 227 16,000  Level Kansas City Center
Tue 01:45:20 AM 39.3708 -91.5764 260° West 197 227 16,000  Level Kansas City Center
Tue 01:46:21 AM 39.3611 -91.6467 260° West 198 228 16,000  Level Kansas City Center
Tue 01:47:21 AM 39.3519 -91.7131 260° West 196 226 16,000  Level Kansas City Center
Tue 01:48:21 AM 39.3439 -91.7817 261° West 195 224 16,000  Level Kansas City Center
Tue 01:49:22 AM 39.3339 -91.8492 259° West 195 224 16,000  Level Kansas City Center
Tue 01:50:22 AM 39.3247 -91.9167 260° West 193 222 16,000  Level Kansas City Center
Tue 01:51:22 AM 39.3158 -91.9833 260° West 191 220 16,000  Level Kansas City Center
Tue 01:52:22 AM 39.3044 -92.0644 260° West 192 221 16,000  Level Kansas City Center
Tue 01:53:23 AM 39.2950 -92.1331 260° West 194 223 16,000  Level Kansas City Center
Tue 01:54:23 AM 39.2856 -92.2008 260° West 194 223 16,000  Level Kansas City Center
Tue 01:55:23 AM 39.2761 -92.2672 260° West 191 220 16,000  Level Kansas City Center
Tue 01:56:23 AM 39.2664 -92.3339 259° West 191 220 16,000 50 Level Kansas City Center
Tue 01:57:24 AM 39.2572 -92.4014 260° West 192 221 16,100 50 Climbing Kansas City Center
Tue 01:58:24 AM 39.2483 -92.4636 260° West 191 220 16,100  Level Kansas City Center
Tue 01:59:24 AM 39.2389 -92.5303 260° West 190 219 16,100  Level Kansas City Center
Tue 02:00:24 AM 39.2286 -92.5983 259° West 192 221 16,100  Level Kansas City Center
Tue 02:01:25 AM 39.2192 -92.6664 260° West 193 222 16,100  Level Kansas City Center
Tue 02:02:25 AM 39.2083 -92.7347 258° West 190 219 16,100  Level Kansas City Center
Tue 02:03:25 AM 39.1986 -92.8008 259° West 189 217 16,100  Level Kansas City Center
Tue 02:04:25 AM 39.1897 -92.8683 260° West 192 221 16,100 -50 Level Kansas City Center
Tue 02:05:26 AM 39.1800 -92.9319 259° West 187 215 16,000 -50 Descending Kansas City Center
Tue 02:06:26 AM 39.1703 -92.9997 260° West 191 220 16,000 -100 Level Kansas City Center
Tue 02:07:26 AM 39.1603 -93.0656 259° West 190 219 15,800 -450 Descending Kansas City Center
Tue 02:08:26 AM 39.1500 -93.1344 259° West 191 220 15,100 -694 Descending Kansas City Center
Tue 02:09:27 AM 39.1394 -93.2069 259° West 198 228 14,400 -694 Descending Kansas City Center
Tue 02:10:27 AM 39.1292 -93.2792 260° West 202 232 13,700 -700 Descending Kansas City Center
Tue 02:11:27 AM 39.1183 -93.3497 259° West 204 235 13,000 -700 Descending Kansas City Center
Tue 02:12:27 AM 39.1072 -93.4250 259° West 201 231 12,300 -700 Descending Kansas City Center
Tue 02:13:27 AM 39.0975 -93.4931 260° West 201 231 11,600 -744 Descending Kansas City Center
Tue 02:14:28 AM 39.0858 -93.5681 259° West 194 223 10,800 -744 Descending Kansas City Center
Tue 02:15:28 AM 39.0750 -93.6319 258° West 191 220 10,100 -700 Descending Kansas City Center
Tue 02:16:28 AM 39.0664 -93.6944 260° West 187 215 9,400 -700 Descending Kansas City Center
Tue 02:17:28 AM 39.0553 -93.7642 258° West 178 205 8,700 -694 Descending Kansas City Center
Tue 02:18:29 AM 39.0522 -93.8233 266° West 176 203 8,000 -595 Descending Kansas City Center
Tue 02:19:29 AM 39.0539 -93.8828 272° West 173 199 7,500 -500 Descending Kansas City Center
Tue 02:20:29 AM 39.0539 -93.9372 270° West 161 185 7,000 -550 Descending Kansas City Center
Tue 02:21:29 AM 39.0525 -93.9989 268° West 155 178 6,400 -496 Descending Kansas City Center
Tue 02:22:30 AM 39.0514 -94.0519 268° West 155 178 6,000 -446 Descending Kansas City Center
Tue 02:23:30 AM 39.0514 -94.1042 270° West 153 176 5,500 -500 Descending Kansas City Center

Login

Don't have an account? Register now (free) for customized features, flight alerts, and more!